Time;durP1;ratioP1;P1;durP2;ratioP2;P2;SDS_P1;SDS_P2;PMS_P1;PMS_P2;Temp;Humidity;BMP_temperature;BMP_pressure;BME280_temperature;BME280_humidity;BME280_pressure;Samples;Min_cycle;Max_cycle;Signal;HPM_P1;HPM_P2
2022/05/05 00:01:04;;;;;;;17.95;8.00;;;;;;;15.56;73.33;101278.41;5107484;27;20039;-72
2022/05/05 00:03:30;;;;;;;13.90;8.50;;;;;;;15.49;73.17;101274.47;5108574;27;20047;-72
2022/05/05 00:05:56;;;;;;;18.30;8.73;;;;;;;15.39;73.73;101275.09;5107701;27;20507;-72
2022/05/05 00:08:24;;;;;;;17.60;8.65;;;;;;;15.43;73.76;101272.19;5108695;28;20093;-72
2022/05/05 00:16:18;;;;;;;15.38;9.05;;;;;;;15.16;75.57;101279.19;5108937;28;20563;-73
2022/05/05 00:18:44;;;;;;;19.13;9.32;;;;;;;15.11;75.81;101271.53;5107694;28;20097;-73
2022/05/05 00:21:11;;;;;;;15.98;8.70;;;;;;;15.07;75.21;101275.34;5107832;28;20539;-73
2022/05/05 00:23:38;;;;;;;16.98;8.75;;;;;;;15.04;75.06;101272.00;5107935;27;20043;-73
2022/05/05 00:26:05;;;;;;;18.23;8.85;;;;;;;15.11;74.38;101268.06;5107529;27;20120;-73
2022/05/05 00:28:31;;;;;;;19.20;8.38;;;;;;;14.94;75.03;101266.47;5106254;27;20048;-72
2022/05/05 00:30:57;;;;;;;22.05;10.13;;;;;;;14.86;75.76;101265.22;5106068;27;20040;-72
2022/05/05 00:33:24;;;;;;;13.70;9.18;;;;;;;14.78;75.97;101260.41;5110406;28;20055;-73
2022/05/05 00:35:50;;;;;;;15.48;9.10;;;;;;;14.51;76.89;101270.84;5109696;27;20688;-73
2022/05/05 00:38:17;;;;;;;21.23;9.07;;;;;;;14.55;76.78;101271.53;5109645;28;20044;-73
2022/05/05 00:40:44;;;;;;;20.73;9.10;;;;;;;14.40;77.45;101267.16;5104562;28;20504;-73
2022/05/05 00:43:11;;;;;;;16.08;9.00;;;;;;;14.53;77.43;101268.97;5110100;28;20097;-73
2022/05/05 00:45:37;;;;;;;16.13;10.00;;;;;;;14.37;77.43;101275.25;5109780;27;20050;-73
2022/05/05 00:48:05;;;;;;;15.23;9.48;;;;;;;14.45;77.25;101279.13;5110141;28;20059;-73
2022/05/05 00:50:33;;;;;;;15.50;8.88;;;;;;;14.63;76.12;101280.66;5109014;28;20047;-73
2022/05/05 00:52:59;;;;;;;13.40;8.60;;;;;;;14.54;76.60;101286.50;5104410;27;20556;-73
2022/05/05 00:55:26;;;;;;;14.88;9.52;;;;;;;14.76;76.05;101277.28;5102942;27;20051;-73
2022/05/05 00:57:53;;;;;;;16.65;9.57;;;;;;;14.81;75.37;101278.72;5101924;28;20061;-73
2022/05/05 01:00:20;;;;;;;17.35;9.05;;;;;;;14.50;76.58;101287.63;5107686;27;20070;-73
2022/05/05 01:02:47;;;;;;;18.20;9.57;;;;;;;14.49;76.56;101296.47;5109365;27;20125;-73
2022/05/05 01:05:14;;;;;;;14.98;8.73;;;;;;;14.66;74.67;101300.75;5109041;27;20039;-73
2022/05/05 01:07:40;;;;;;;13.45;9.05;;;;;;;14.55;75.35;101309.31;5109250;28;20495;-72
2022/05/05 01:10:08;;;;;;;16.77;9.38;;;;;;;14.80;74.52;101313.13;5107947;28;20040;-73
2022/05/05 01:12:34;;;;;;;16.90;8.90;;;;;;;14.74;75.76;101308.22;5109589;27;20047;-73
2022/05/05 01:15:02;;;;;;;16.80;9.05;;;;;;;14.82;75.24;101313.91;5109223;27;20101;-73
2022/05/05 01:17:30;;;;;;;14.80;8.70;;;;;;;14.80;74.27;101324.53;5109722;28;20491;-73
2022/05/05 01:19:56;;;;;;;15.90;8.23;;;;;;;14.63;75.37;101321.22;5108781;28;20044;-73
2022/05/05 01:22:26;;;;;;;14.85;9.18;;;;;;;14.72;75.03;101324.16;5109187;28;20044;-73
2022/05/05 01:30:20;;;;;;;17.98;9.50;;;;;;;14.75;75.17;101329.22;5108634;27;20403;-73
2022/05/05 01:32:46;;;;;;;16.42;10.43;;;;;;;14.38;77.06;101332.34;5107925;27;20540;-74
2022/05/05 01:35:13;;;;;;;17.65;10.15;;;;;;;14.35;77.21;101328.09;5109422;27;20507;-73
2022/05/05 01:37:41;;;;;;;20.50;10.13;;;;;;;14.45;76.68;101334.53;5109467;28;20132;-73
2022/05/05 01:40:08;;;;;;;18.98;10.57;;;;;;;14.54;76.83;101331.38;5090772;28;20073;-74
2022/05/05 01:42:35;;;;;;;17.05;10.40;;;;;;;14.95;74.88;101338.63;5089366;28;20048;-73
2022/05/05 01:45:01;;;;;;;20.70;11.05;;;;;;;14.53;76.62;101339.34;5105568;28;20084;-73
2022/05/05 01:47:27;;;;;;;18.13;10.55;;;;;;;14.29;77.49;101332.84;5109608;28;20100;-72
2022/05/05 01:49:58;;;;;;;20.25;11.10;;;;;;;13.87;79.87;101339.63;5101321;27;20063;-72
2022/05/05 01:52:24;;;;;;;17.08;10.77;;;;;;;14.03;79.29;101339.59;5109877;27;20495;-72
2022/05/05 01:54:52;;;;;;;18.48;11.07;;;;;;;14.23;78.92;101336.69;5110284;27;20063;-72
2022/05/05 01:57:18;;;;;;;18.42;10.75;;;;;;;14.36;77.63;101348.28;5109027;27;20096;-72
2022/05/05 01:59:44;;;;;;;16.80;10.05;;;;;;;14.59;76.19;101347.78;5111473;27;20047;-72
2022/05/05 02:02:11;;;;;;;17.48;10.20;;;;;;;14.34;77.49;101343.97;5114658;27;20036;-72
2022/05/05 02:04:37;;;;;;;20.67;9.93;;;;;;;14.21;78.34;101349.13;5117729;27;20052;-72
2022/05/05 02:07:04;;;;;;;15.38;9.60;;;;;;;14.28;76.99;101347.81;5113679;28;20044;-72
2022/05/05 02:09:31;;;;;;;19.52;10.13;;;;;;;14.35;76.75;101358.91;5115257;27;20127;-72
2022/05/05 02:11:59;;;;;;;17.02;10.05;;;;;;;14.04;78.20;101365.06;5133534;27;20043;-73
2022/05/05 02:14:25;;;;;;;18.85;10.32;;;;;;;14.32;76.45;101357.25;5128719;27;20051;-73
2022/05/05 02:16:52;;;;;;;17.20;10.00;;;;;;;14.44;75.70;101350.47;5113854;28;20156;-73
2022/05/05 02:19:18;;;;;;;16.17;10.10;;;;;;;13.78;77.00;101360.38;5112778;27;20039;-73
2022/05/05 02:21:45;;;;;;;12.65;9.80;;;;;;;13.67;77.42;101371.50;5115480;27;20047;-73
2022/05/05 02:24:11;;;;;;;22.83;10.55;;;;;;;13.70;77.43;101362.56;5119564;27;20495;-72
2022/05/05 02:26:37;;;;;;;15.02;10.23;;;;;;;13.73;77.17;101371.16;5111451;27;20496;-72
2022/05/05 02:29:05;;;;;;;19.25;10.32;;;;;;;13.60;77.66;101381.50;5109465;27;20043;-72
2022/05/05 02:31:31;;;;;;;16.13;10.68;;;;;;;13.89;76.19;101374.66;5112260;27;20055;-72
2022/05/05 02:33:58;;;;;;;15.02;10.63;;;;;;;14.09;75.76;101384.94;5112488;27;20092;-72
2022/05/05 02:39:08;;;;;;;18.70;10.13;;;;;;;14.04;75.91;101380.88;5132903;27;20134;-72
2022/05/05 02:41:34;;;;;;;15.55;9.93;;;;;;;13.98;75.79;101379.41;5133233;27;20134;-73
2022/05/05 02:44:00;;;;;;;17.08;9.38;;;;;;;13.82;75.68;101383.81;5133474;27;20489;-73
2022/05/05 02:46:28;;;;;;;16.13;9.88;;;;;;;13.56;77.35;101385.22;5132156;27;20115;-72
2022/05/05 02:48:54;;;;;;;21.65;9.95;;;;;;;13.89;75.29;101384.34;5133609;27;20061;-72
2022/05/05 02:51:21;;;;;;;15.68;9.88;;;;;;;13.59;75.79;101385.09;5133339;27;20043;-72
2022/05/05 02:56:31;;;;;;;15.18;10.02;;;;;;;13.07;76.05;101380.84;5114828;27;20089;-72
2022/05/05 02:58:57;;;;;;;22.27;10.52;;;;;;;13.44;74.10;101380.66;5104922;28;20048;-72
2022/05/05 03:01:23;;;;;;;14.52;9.20;;;;;;;13.33;74.60;101390.03;5112430;27;20047;-72
2022/05/05 03:03:51;;;;;;;14.18;9.30;;;;;;;13.59;73.56;101393.00;5111805;27;20499;-72
2022/05/05 03:06:17;;;;;;;16.20;9.68;;;;;;;13.45;73.75;101389.41;5122905;27;20060;-72
2022/05/05 03:08:44;;;;;;;16.00;9.35;;;;;;;13.64;73.17;101387.47;5132087;27;20096;-72
2022/05/05 03:11:11;;;;;;;15.35;9.15;;;;;;;13.76;72.98;101392.06;5131251;27;20112;-72
2022/05/05 03:13:37;;;;;;;15.30;9.57;;;;;;;13.67;73.48;101392.59;5126730;27;20552;-72
2022/05/05 03:16:05;;;;;;;17.48;9.57;;;;;;;13.82;73.08;101385.63;5112260;27;20043;-72
2022/05/05 03:18:31;;;;;;;15.18;9.40;;;;;;;14.05;72.32;101385.19;5111497;28;20097;-71
2022/05/05 03:20:59;;;;;;;18.05;10.00;;;;;;;13.78;73.25;101378.81;5111170;27;20124;-72
2022/05/05 03:23:25;;;;;;;24.35;10.07;;;;;;;13.25;75.53;101376.41;5112014;27;20568;-72
2022/05/05 03:25:51;;;;;;;16.67;9.98;;;;;;;13.36;74.39;101377.56;5111313;27;20101;-72
2022/05/05 03:28:18;;;;;;;15.80;9.52;;;;;;;13.17;74.91;101366.28;5111496;27;20100;-71
2022/05/05 03:30:44;;;;;;;14.82;9.35;;;;;;;12.94;75.88;101374.47;5109604;27;20122;-71
2022/05/05 03:33:11;;;;;;;12.85;9.93;;;;;;;13.03;75.23;101374.03;5117452;27;20048;-71
2022/05/05 03:35:37;;;;;;;17.95;10.00;;;;;;;13.20;74.87;101381.06;5111261;27;20047;-72
2022/05/05 03:38:05;;;;;;;16.30;9.93;;;;;;;13.25;74.13;101382.53;5111294;27;20552;-72
2022/05/05 03:40:31;;;;;;;15.55;9.88;;;;;;;13.21;73.46;101388.91;5109558;27;20101;-72
2022/05/05 03:42:58;;;;;;;15.57;9.40;;;;;;;13.25;72.90;101398.34;5109974;27;20667;-72
2022/05/05 03:45:24;;;;;;;17.08;9.88;;;;;;;13.36;71.99;101392.50;5106613;27;20048;-72
2022/05/05 03:47:51;;;;;;;15.73;9.90;;;;;;;13.64;70.44;101393.59;5110943;27;20433;-71
2022/05/05 03:50:17;;;;;;;15.55;9.65;;;;;;;13.53;71.23;101397.72;5109978;27;20579;-71
2022/05/05 03:52:43;;;;;;;13.63;9.38;;;;;;;13.29;72.07;101399.88;5119796;27;20072;-71
2022/05/05 03:55:11;;;;;;;15.70;9.93;;;;;;;12.96;72.78;101388.44;5121238;27;20124;-71
2022/05/05 03:57:37;;;;;;;17.50;9.77;;;;;;;12.93;73.20;101391.22;5110412;27;20397;-72
2022/05/05 04:00:05;;;;;;;17.30;9.65;;;;;;;12.68;74.22;101392.44;5110267;27;20097;-72
2022/05/05 04:02:31;;;;;;;18.90;9.77;;;;;;;12.71;73.57;101398.50;5117580;27;20054;-72
2022/05/05 04:04:58;;;;;;;17.02;10.02;;;;;;;12.56;74.32;101398.31;5130901;27;20103;-72
2022/05/05 04:07:24;;;;;;;16.38;9.65;;;;;;;12.73;73.48;101399.25;5131331;27;20563;-72
2022/05/05 04:09:53;;;;;;;16.27;9.80;;;;;;;12.43;74.30;101402.50;5130722;27;20066;-72
2022/05/05 04:12:21;;;;;;;18.02;10.55;;;;;;;11.90;77.16;101417.34;5125146;27;20474;-72
2022/05/05 04:14:48;;;;;;;17.20;9.95;;;;;;;12.14;76.26;101413.56;5110168;27;20058;-72
2022/05/05 04:17:14;;;;;;;16.95;11.00;;;;;;;12.20;76.36;101415.88;5109951;28;20049;-71
2022/05/05 04:19:40;;;;;;;14.27;9.65;;;;;;;12.42;74.80;101424.44;5109698;28;20043;-71
2022/05/05 04:22:07;;;;;;;15.13;9.90;;;;;;;12.47;74.65;101427.72;5106914;27;20043;-71
2022/05/05 04:24:33;;;;;;;16.52;9.30;;;;;;;12.96;72.05;101425.28;5107970;27;20055;-71
2022/05/05 04:26:59;;;;;;;18.33;9.90;;;;;;;12.45;73.64;101424.28;5109601;27;20111;-71
2022/05/05 04:29:27;;;;;;;17.83;9.43;;;;;;;12.52;73.55;101430.13;5109610;27;20116;-71
2022/05/05 04:31:54;;;;;;;16.13;9.70;;;;;;;12.42;73.68;101440.22;5110442;27;20035;-71
2022/05/05 04:34:20;;;;;;;19.58;9.63;;;;;;;12.65;73.12;101447.00;5109498;28;20108;-71
2022/05/05 04:36:46;;;;;;;16.48;8.95;;;;;;;12.65;72.70;101444.38;5110315;27;20048;-71
2022/05/05 04:39:13;;;;;;;13.50;8.73;;;;;;;12.36;73.45;101450.19;5109116;27;20059;-71
2022/05/05 04:41:39;;;;;;;15.95;10.32;;;;;;;12.36;73.53;101445.78;5109999;27;20047;-71
2022/05/05 04:44:05;;;;;;;21.88;9.32;;;;;;;12.34;73.06;101446.81;5129538;27;20088;-71
2022/05/05 04:46:33;;;;;;;15.35;9.13;;;;;;;12.55;72.74;101451.88;5130232;27;20047;-71
2022/05/05 04:48:59;;;;;;;14.38;9.00;;;;;;;12.77;72.06;101443.78;5129999;27;20051;-71
2022/05/05 04:51:26;;;;;;;16.08;9.02;;;;;;;12.53;72.25;101445.81;5130822;27;20047;-71
2022/05/05 04:53:52;;;;;;;16.33;9.13;;;;;;;12.32;73.81;101449.50;5113775;27;20047;-71
2022/05/05 04:56:18;;;;;;;14.38;8.35;;;;;;;12.73;72.08;101454.53;5109429;27;20487;-71
2022/05/05 04:58:45;;;;;;;12.00;7.82;;;;;;;12.59;73.54;101452.56;5109260;27;20570;-72
2022/05/05 05:01:11;;;;;;;15.05;8.02;;;;;;;12.50;72.94;101464.38;5109698;27;20044;-71
2022/05/05 05:03:40;;;;;;;17.55;8.93;;;;;;;13.00;72.19;101453.16;5114724;27;20461;-72
2022/05/05 05:06:07;;;;;;;13.77;8.50;;;;;;;13.35;70.34;101465.41;5107090;28;20169;-71
2022/05/05 05:08:34;;;;;;;15.38;7.90;;;;;;;13.40;70.90;101458.13;5109601;27;20043;-71
2022/05/05 05:11:00;;;;;;;12.77;7.85;;;;;;;13.69;69.31;101466.28;5109409;27;20116;-71
2022/05/05 05:13:27;;;;;;;14.10;7.25;;;;;;;13.16;70.23;101464.63;5123383;27;20047;-71
2022/05/05 05:15:53;;;;;;;15.75;7.55;;;;;;;13.04;70.03;101473.97;5130755;27;20100;-71
2022/05/05 05:18:19;;;;;;;10.07;6.85;;;;;;;13.61;67.08;101480.72;5131018;27;20047;-71
2022/05/05 05:20:48;;;;;;;11.77;6.90;;;;;;;13.15;67.85;101484.03;5130021;27;20041;-71
2022/05/05 05:23:14;;;;;;;14.38;6.90;;;;;;;13.34;68.18;101481.31;5123385;27;20067;-71
2022/05/05 05:25:40;;;;;;;13.23;7.55;;;;;;;13.52;67.25;101486.47;5111015;27;20557;-71
2022/05/05 05:28:07;;;;;;;9.38;7.05;;;;;;;13.63;67.02;101492.00;5127065;27;20057;-71
2022/05/05 05:30:33;;;;;;;13.95;7.25;;;;;;;13.65;66.91;101497.22;5133808;27;20023;-71
2022/05/05 05:33:00;;;;;;;13.27;6.88;;;;;;;13.90;66.14;101494.13;5142635;27;20066;-71
2022/05/05 05:35:26;;;;;;;14.52;6.32;;;;;;;14.10;65.51;101502.69;5134400;27;20058;-71
2022/05/05 05:37:54;;;;;;;9.40;6.10;;;;;;;14.58;63.46;101498.31;5134134;28;20047;-71
2022/05/05 05:40:20;;;;;;;9.55;6.28;;;;;;;14.56;62.82;101501.00;5127571;28;20491;-71
2022/05/05 05:42:47;;;;;;;11.70;6.22;;;;;;;14.56;63.28;101508.06;5114888;27;20051;-71
2022/05/05 05:45:13;;;;;;;10.18;6.50;;;;;;;14.73;62.83;101507.16;5114571;28;20088;-71
2022/05/05 05:47:39;;;;;;;16.80;7.30;;;;;;;14.72;63.93;101516.84;5114106;28;20047;-72
2022/05/05 05:50:06;;;;;;;14.45;7.60;;;;;;;14.94;63.31;101505.91;5113205;28;20518;-71
2022/05/05 05:52:33;;;;;;;9.90;6.90;;;;;;;15.42;60.16;101508.31;5112624;27;20069;-71
2022/05/05 05:55:01;;;;;;;11.02;5.88;;;;;;;14.78;60.84;101513.03;5118460;27;20050;-71
2022/05/05 05:57:28;;;;;;;11.15;6.50;;;;;;;15.14;61.95;101508.25;5113173;27;20051;-71
2022/05/05 05:59:55;;;;;;;13.05;6.13;;;;;;;15.38;61.30;101505.94;5100310;28;20040;-71
2022/05/05 06:05:06;;;;;;;11.30;5.70;;;;;;;16.09;59.52;101512.19;5105791;27;20527;-71
2022/05/05 06:07:32;;;;;;;12.65;6.18;;;;;;;16.05;58.27;101514.16;5113737;28;20055;-71
2022/05/05 06:10:00;;;;;;;10.10;6.32;;;;;;;16.28;57.56;101515.38;5108434;28;20100;-71
2022/05/05 06:12:27;;;;;;;9.63;6.10;;;;;;;16.33;57.75;101518.56;5111223;27;20488;-71
2022/05/05 06:14:53;;;;;;;14.43;6.32;;;;;;;16.83;56.34;101523.31;5110378;27;20071;-71
2022/05/05 06:17:19;;;;;;;13.52;6.05;;;;;;;17.17;55.64;101523.72;5095562;28;20613;-71
2022/05/05 06:19:46;;;;;;;9.18;5.80;;;;;;;17.75;53.35;101520.66;5102958;27;20073;-69
2022/05/05 06:22:12;;;;;;;15.55;6.00;;;;;;;17.72;55.86;101520.88;5110274;27;20054;-71
2022/05/05 06:24:38;;;;;;;11.50;5.95;;;;;;;17.61;54.95;101528.72;5110797;27;20071;-72
2022/05/05 06:27:06;;;;;;;11.43;6.15;;;;;;;17.80;56.15;101529.16;5110649;27;20448;-71
2022/05/05 06:29:33;;;;;;;14.68;6.00;;;;;;;17.48;57.46;101521.56;5110823;28;20073;-72
2022/05/05 06:31:59;;;;;;;19.35;6.47;;;;;;;17.71;55.84;101529.75;5111290;27;20047;-71
2022/05/05 06:34:26;;;;;;;12.68;6.15;;;;;;;18.04;54.72;101531.88;5110681;28;20116;-72
2022/05/05 06:36:52;;;;;;;10.43;5.72;;;;;;;18.34;53.82;101527.91;5110606;28;20259;-72
2022/05/05 06:39:18;;;;;;;9.20;5.38;;;;;;;18.30;54.96;101522.91;5110024;28;20457;-71
2022/05/05 06:41:45;;;;;;;11.63;6.03;;;;;;;18.58;53.89;101530.66;5110368;28;20407;-71
2022/05/05 06:44:12;;;;;;;13.65;6.30;;;;;;;18.86;53.16;101526.81;5108217;28;20036;-71
2022/05/05 06:46:39;;;;;;;10.07;5.97;;;;;;;19.20;52.45;101533.13;5115915;27;20099;-71
2022/05/05 06:49:06;;;;;;;16.98;6.63;;;;;;;19.42;51.98;101539.41;5130939;27;20065;-71
2022/05/05 06:51:33;;;;;;;13.45;6.45;;;;;;;19.07;51.03;101533.19;5113274;28;20067;-72
2022/05/05 06:53:59;;;;;;;13.30;6.28;;;;;;;18.99;50.30;101538.25;5113261;27;20096;-72
2022/05/05 06:56:27;;;;;;;18.92;6.35;;;;;;;19.32;51.33;101532.22;5113184;27;20120;-72
2022/05/05 06:58:54;;;;;;;19.75;6.25;;;;;;;19.55;51.65;101544.63;5111962;28;20457;-72
2022/05/05 07:06:49;;;;;;;12.48;7.13;;;;;;;20.07;50.50;101540.56;5092197;28;20185;-72
2022/05/05 07:12:00;;;;;;;16.50;6.30;;;;;;;20.24;52.29;101543.63;5097716;27;20047;-72
2022/05/05 07:14:26;;;;;;;10.23;6.35;;;;;;;20.56;50.67;101540.22;5111854;28;20073;-72
2022/05/05 07:16:54;;;;;;;13.98;6.82;;;;;;;20.97;48.81;101552.81;5110861;27;20064;-72
2022/05/05 07:19:20;;;;;;;11.43;7.50;;;;;;;20.67;47.84;101551.69;5110848;28;20124;-72
2022/05/05 07:21:46;;;;;;;10.13;6.18;;;;;;;20.86;49.42;101549.22;5110956;28;20043;-72
2022/05/05 07:24:13;;;;;;;9.77;6.93;;;;;;;21.39;48.11;101553.78;5106264;27;20124;-72
2022/05/05 07:26:39;;;;;;;14.77;7.35;;;;;;;21.46;48.82;101544.28;5110722;27;20044;-72
2022/05/05 07:29:05;;;;;;;10.68;6.53;;;;;;;21.45;47.08;101555.94;5110590;28;20180;-72
2022/05/05 07:31:32;;;;;;;13.23;6.85;;;;;;;21.59;48.52;101550.25;5110761;28;20104;-72
2022/05/05 07:33:59;;;;;;;12.55;7.00;;;;;;;21.80;48.79;101554.59;5111057;27;20128;-72
2022/05/05 07:36:26;;;;;;;14.00;6.85;;;;;;;21.76;45.93;101563.88;5101841;27;20043;-72
2022/05/05 07:38:52;;;;;;;12.13;6.53;;;;;;;21.51;47.83;101561.59;5109644;28;20048;-72
2022/05/05 07:41:18;;;;;;;11.70;6.78;;;;;;;21.91;48.49;101567.09;5096097;28;20036;-72
2022/05/05 07:43:45;;;;;;;10.25;6.18;;;;;;;22.31;44.93;101568.00;5093676;28;20047;-72
2022/05/05 07:46:11;;;;;;;13.13;6.25;;;;;;;22.10;46.48;101569.00;5110625;27;20089;-72
2022/05/05 07:48:37;;;;;;;9.30;6.38;;;;;;;22.62;45.86;101579.47;5110386;27;20052;-72
2022/05/05 07:51:05;;;;;;;12.85;6.40;;;;;;;22.69;45.19;101572.63;5110138;27;20100;-72
2022/05/05 07:53:32;;;;;;;16.42;6.95;;;;;;;23.03;45.76;101572.25;5106264;27;20073;-73
2022/05/05 07:55:58;;;;;;;10.52;7.10;;;;;;;22.95;45.63;101570.28;5109813;27;20659;-73
2022/05/05 07:58:24;;;;;;;12.05;6.70;;;;;;;23.10;45.75;101570.72;5107111;27;20044;-73
2022/05/05 08:00:51;;;;;;;11.85;6.78;;;;;;;22.93;45.00;101577.59;5109756;27;20098;-73
2022/05/05 08:03:18;;;;;;;9.48;6.93;;;;;;;23.00;44.81;101578.75;5110280;27;20112;-73
2022/05/05 08:05:45;;;;;;;10.52;6.55;;;;;;;22.87;43.99;101574.66;5109952;27;20093;-73
2022/05/05 08:08:13;;;;;;;8.45;5.85;;;;;;;23.01;44.68;101591.13;5093792;28;20523;-73
2022/05/05 08:10:40;;;;;;;11.68;6.97;;;;;;;23.45;45.95;101576.38;5091244;28;20048;-73
2022/05/05 08:13:06;;;;;;;11.60;6.47;;;;;;;22.94;43.32;101581.97;5089143;28;20496;-73
2022/05/05 08:15:33;;;;;;;11.07;6.80;;;;;;;23.80;42.52;101580.28;5092679;28;20048;-73
2022/05/05 08:17:59;;;;;;;14.13;6.75;;;;;;;24.59;37.65;101579.72;5095886;27;20044;-73
2022/05/05 08:20:25;;;;;;;14.85;6.82;;;;;;;24.40;38.63;101590.53;5108911;27;20101;-73
2022/05/05 08:22:52;;;;;;;12.20;6.07;;;;;;;24.00;40.78;101585.44;5109568;27;20108;-73
2022/05/05 08:30:48;;;;;;;10.55;6.15;;;;;;;23.69;43.13;101595.50;5099113;27;20058;-73
2022/05/05 08:33:14;;;;;;;13.75;6.13;;;;;;;23.76;43.92;101604.66;5100733;28;20051;-73
2022/05/05 08:35:42;;;;;;;12.82;5.55;;;;;;;23.54;42.15;101606.81;5108154;28;20051;-73
2022/05/05 08:38:09;;;;;;;10.32;6.10;;;;;;;23.79;41.22;101592.00;5108820;27;20051;-73
2022/05/05 08:40:40;;;;;;;12.70;6.18;;;;;;;24.18;40.34;101598.97;5108559;27;20051;-73
2022/05/05 08:43:07;;;;;;;15.95;6.18;;;;;;;24.71;38.40;101596.47;5109588;28;20065;-73
2022/05/05 08:45:34;;;;;;;14.00;5.85;;;;;;;24.45;40.38;101593.63;5096889;27;20454;-73
2022/05/05 08:48:00;;;;;;;11.75;6.25;;;;;;;24.47;40.55;101598.84;5103043;28;20072;-73
2022/05/05 08:50:27;;;;;;;8.77;5.60;;;;;;;24.62;39.76;101602.72;5109125;28;20047;-73
2022/05/05 08:52:54;;;;;;;11.00;5.47;;;;;;;24.27;36.93;101602.59;5108617;27;20631;-73
2022/05/05 08:55:21;;;;;;;12.00;5.97;;;;;;;24.76;39.30;101604.88;5109178;27;20487;-73
2022/05/05 08:57:49;;;;;;;10.38;5.60;;;;;;;24.24;39.18;101595.72;5108046;27;20056;-73
2022/05/05 09:00:16;;;;;;;12.70;5.55;;;;;;;24.13;36.40;101598.53;5108439;27;20044;-74
2022/05/05 09:02:44;;;;;;;10.52;6.35;;;;;;;24.03;39.60;101605.75;5092066;27;20048;-73
2022/05/05 09:05:11;;;;;;;14.05;5.63;;;;;;;24.14;35.64;101603.75;5097971;28;21258;-73
2022/05/05 09:07:49;;;;;;;10.60;5.50;;;;;;;23.74;36.38;101613.84;5100668;28;20457;-73
2022/05/05 09:10:16;;;;;;;15.27;6.20;;;;;;;24.10;35.80;101601.47;5094394;28;20127;-73
2022/05/05 09:12:44;;;;;;;10.20;5.97;;;;;;;23.57;34.38;101606.53;5108436;28;20426;-73
2022/05/05 09:15:12;;;;;;;12.38;6.25;;;;;;;24.02;36.35;101609.44;5108682;28;20114;-73
2022/05/05 09:17:38;;;;;;;13.80;6.32;;;;;;;23.77;35.42;101594.81;5108607;27;20074;-73
2022/05/05 09:20:06;;;;;;;10.93;5.85;;;;;;;23.81;34.79;101598.03;5108343;28;20651;-73
2022/05/05 09:22:32;;;;;;;15.70;5.80;;;;;;;24.19;35.82;101606.88;5105198;27;20112;-73
2022/05/05 09:25:01;;;;;;;11.80;5.70;;;;;;;24.71;34.66;101607.19;5108531;27;20036;-73
2022/05/05 09:27:29;;;;;;;13.43;6.07;;;;;;;24.97;33.03;101608.19;5108207;27;20040;-73
2022/05/05 09:30:05;;;;;;;15.45;6.05;;;;;;;24.96;36.87;101614.56;5107652;27;20039;-73
2022/05/05 09:32:35;;;;;;;13.13;6.45;;;;;;;24.81;33.78;101616.03;5108441;28;20101;-73
2022/05/05 09:35:04;;;;;;;8.82;5.57;;;;;;;24.82;34.05;101614.19;5108616;28;20042;-74
2022/05/05 09:37:31;;;;;;;15.32;6.57;;;;;;;25.03;37.78;101615.63;5108587;28;20198;-74
2022/05/05 09:39:59;;;;;;;16.98;6.85;;;;;;;25.29;35.72;101622.94;5096914;28;20127;-74
2022/05/05 09:42:40;;;;;;;10.95;5.88;;;;;;;25.38;33.78;101608.59;5105789;27;20097;-73
2022/05/05 09:45:16;;;;;;;9.98;5.75;;;;;;;24.45;32.02;101608.88;5106133;27;20056;-73
2022/05/05 09:47:45;;;;;;;12.63;5.50;;;;;;;24.67;36.15;101608.47;5088408;28;20048;-74
2022/05/05 09:50:13;;;;;;;12.63;6.25;;;;;;;25.07;37.60;101617.03;5092209;27;20093;-75
2022/05/05 09:58:15;;;;;;;9.43;5.47;;;;;;;25.87;31.52;101620.63;5107827;27;20526;-74
2022/05/05 10:00:45;;;;;;;11.73;5.22;;;;;;;25.47;31.07;101626.47;5107005;28;20039;-74
2022/05/05 10:06:03;;;;;;;9.95;4.88;;;;;;;25.97;34.52;101632.13;5108424;28;20042;-73
2022/05/05 10:08:37;;;;;;;11.80;5.05;;;;;;;25.99;30.65;101617.50;5108498;28;20071;-73
2022/05/05 10:11:06;;;;;;;8.40;5.25;;;;;;;26.05;33.08;101626.81;5096895;28;20048;-74
2022/05/05 10:13:33;;;;;;;14.27;6.00;;;;;;;26.12;32.41;101631.38;5087201;28;20047;-72
2022/05/05 10:16:00;;;;;;;9.20;5.38;;;;;;;26.00;33.77;101635.31;5099796;27;20048;-73
2022/05/05 10:18:28;;;;;;;12.85;5.25;;;;;;;25.96;30.24;101625.91;5108367;28;20055;-69
2022/05/05 10:20:57;;;;;;;8.60;4.55;;;;;;;25.90;32.18;101634.59;5109947;28;20044;-73
2022/05/05 10:23:33;;;;;;;7.63;4.63;;;;;;;25.77;29.99;101627.91;5108079;27;20044;-71
2022/05/05 10:26:01;;;;;;;7.72;4.13;;;;;;;25.74;33.32;101621.03;5112272;27;20050;-71
2022/05/05 10:28:41;;;;;;;8.82;4.43;;;;;;;25.64;32.79;101620.28;5112315;28;20560;-72
2022/05/05 10:31:12;;;;;;;10.82;4.78;;;;;;;24.38;30.97;101615.81;5111047;27;20043;-71
2022/05/05 10:34:00;;;;;;;12.40;4.50;;;;;;;24.93;31.63;101614.88;5111973;27;20054;-72
2022/05/05 10:36:27;;;;;;;8.98;4.38;;;;;;;25.36;35.14;101613.25;5111630;27;20410;-71
2022/05/05 10:38:54;;;;;;;11.40;4.88;;;;;;;25.48;33.00;101625.47;5111202;27;20092;-72
2022/05/05 10:41:38;;;;;;;10.50;4.95;;;;;;;25.54;33.78;101619.50;5108221;27;20411;-71
2022/05/05 10:44:25;;;;;;;20.08;5.30;;;;;;;25.47;33.19;101623.78;5111265;27;20140;-71
2022/05/05 10:46:59;;;;;;;10.23;4.70;;;;;;;25.07;33.39;101618.84;5111761;27;20055;-71
2022/05/05 10:49:47;;;;;;;14.73;4.93;;;;;;;25.05;32.52;101618.19;5091176;28;20059;-73
2022/05/05 10:52:28;;;;;;;10.23;4.70;;;;;;;24.73;31.78;101621.28;5102468;28;20454;-71
2022/05/05 10:54:55;;;;;;;10.05;4.60;;;;;;;24.90;31.65;101620.53;5103022;27;20096;-72
2022/05/05 10:57:41;;;;;;;7.57;3.75;;;;;;;25.53;30.79;101615.16;5107785;27;20066;-70
2022/05/05 11:00:09;;;;;;;7.38;3.67;;;;;;;25.38;31.00;101617.50;5090281;28;20067;-68
2022/05/05 11:02:36;;;;;;;9.02;3.58;;;;;;;26.06;32.30;101620.41;5094668;28;20087;-68
2022/05/05 11:05:27;;;;;;;12.40;2.78;;;;;;;26.17;25.03;101628.19;5111071;28;20055;-67
2022/05/05 11:07:54;;;;;;;7.80;2.78;;;;;;;25.62;27.89;101643.75;5109638;27;20047;-67
2022/05/05 11:11:39;;;;;;;8.57;3.45;;;;;;;25.37;25.25;101631.91;5110309;28;20040;-67
2022/05/05 11:13:36;;;;;;;7.07;2.33;;;;;;;25.26;27.88;101640.19;5077712;28;20136;-68
2022/05/05 11:22:08;;;;;;;7.25;2.40;;;;;;;25.25;27.72;101643.03;5110741;28;20054;-68
2022/05/05 11:24:34;;;;;;;8.50;1.90;;;;;;;25.16;27.34;101645.66;5108286;27;20535;-68
2022/05/05 11:27:00;;;;;;;4.53;1.83;;;;;;;25.15;26.10;101638.59;5111057;27;20384;-68
2022/05/05 11:29:29;;;;;;;7.00;2.53;;;;;;;25.20;30.17;101640.81;5108023;28;20063;-68
2022/05/05 11:31:59;;;;;;;5.30;2.00;;;;;;;24.83;31.03;101638.19;5109067;28;20046;-68
2022/05/05 11:34:32;;;;;;;5.65;2.05;;;;;;;25.15;25.37;101640.41;5109350;28;20499;-68
2022/05/05 11:37:00;;;;;;;7.40;1.73;;;;;;;25.17;34.45;101636.56;5110683;28;20070;-68
2022/05/05 11:39:28;;;;;;;6.28;2.03;;;;;;;25.56;26.97;101631.81;5108569;27;20081;-68
2022/05/05 11:42:02;;;;;;;13.70;2.35;;;;;;;25.41;30.66;101637.81;5110420;27;20071;-68
2022/05/05 11:44:28;;;;;;;6.50;2.10;;;;;;;25.43;27.79;101625.91;5110202;27;20059;-72
2022/05/05 11:46:57;;;;;;;4.18;1.92;;;;;;;25.21;31.39;101631.75;5110955;28;20112;-72
2022/05/05 11:49:25;;;;;;;5.20;2.05;;;;;;;25.26;28.79;101633.97;5108380;27;20124;-72
2022/05/05 11:51:53;;;;;;;5.45;2.00;;;;;;;25.37;30.96;101637.28;5108368;27;20477;-72
2022/05/05 11:54:26;;;;;;;5.68;2.00;;;;;;;25.40;32.12;101620.03;5109656;27;20050;-72
2022/05/05 11:56:54;;;;;;;4.47;2.05;;;;;;;25.52;31.68;101624.19;5110032;27;20043;-74
2022/05/05 12:02:09;;;;;;;7.68;2.17;;;;;;;25.13;28.74;101643.25;5110095;27;20050;-71
2022/05/05 12:04:37;;;;;;;12.38;2.33;;;;;;;25.22;30.47;101635.28;5105897;27;20066;-72
2022/05/05 12:07:05;;;;;;;14.88;2.80;;;;;;;24.92;31.56;101631.94;5100115;28;20054;-72
2022/05/05 12:09:32;;;;;;;10.38;2.42;;;;;;;24.90;27.96;101633.94;5109348;27;20126;-72